createdAt,value
2022-12-12T00:00:53.447Z,100229.94
2022-12-12T00:03:23.173Z,100230.75
2022-12-12T00:05:54.322Z,100226.38
2022-12-12T00:08:22.618Z,100227.31
2022-12-12T00:10:50.917Z,100231.19
2022-12-12T00:13:19.243Z,100229.66
2022-12-12T00:15:48.424Z,100228.59
2022-12-12T00:18:16.877Z,100232.22
2022-12-12T00:20:46.670Z,100227.50
2022-12-12T00:23:14.955Z,100230.16
2022-12-12T00:25:43.249Z,100224.06
2022-12-12T00:28:11.499Z,100225.69
2022-12-12T00:30:39.997Z,100230.69
2022-12-12T00:33:08.212Z,100231.34
2022-12-12T00:35:36.387Z,100234.03
2022-12-12T00:38:06.106Z,100238.19
2022-12-12T00:40:34.440Z,100240.78
2022-12-12T00:43:02.909Z,100240.56
2022-12-12T00:45:31.113Z,100237.19
2022-12-12T00:47:59.468Z,100243.63
2022-12-12T00:50:27.808Z,100241.03
2022-12-12T00:52:56.700Z,100235.41
2022-12-12T00:55:26.976Z,100243.72
2022-12-12T00:57:55.253Z,100245.25
2022-12-12T01:00:23.883Z,100245.75
2022-12-12T01:02:52.222Z,100251.13
2022-12-12T01:05:20.491Z,100257.00
2022-12-12T01:07:49.038Z,100258.13
2022-12-12T01:10:17.394Z,100253.72
2022-12-12T01:12:47.115Z,100268.47
2022-12-12T01:15:15.639Z,100266.59
2022-12-12T01:17:43.968Z,100270.81
2022-12-12T01:20:16.539Z,100261.22
2022-12-12T01:22:45.076Z,100267.25
2022-12-12T01:25:14.275Z,100269.47
2022-12-12T01:27:42.763Z,100273.66
2022-12-12T01:30:14.417Z,100274.72
2022-12-12T01:32:42.963Z,100270.97
2022-12-12T01:35:11.658Z,100267.38
2022-12-12T01:37:41.444Z,100276.81
2022-12-12T01:40:12.524Z,100272.59
2022-12-12T01:42:40.959Z,100275.16
2022-12-12T01:45:10.160Z,100278.91
2022-12-12T01:47:39.823Z,100277.75
2022-12-12T01:50:10.152Z,100282.22
2022-12-12T01:52:41.743Z,100280.81
2022-12-12T01:55:12.312Z,100280.81
2022-12-12T01:57:43.673Z,100282.31
2022-12-12T02:00:12.457Z,100283.38
2022-12-12T02:02:43.987Z,100282.31
2022-12-12T02:05:19.011Z,100276.00
2022-12-12T02:07:51.009Z,100282.41
2022-12-12T02:10:22.444Z,100284.81
2022-12-12T02:12:51.273Z,100285.56
2022-12-12T02:15:27.895Z,100284.44
2022-12-12T02:18:06.695Z,100285.72
2022-12-12T02:20:52.354Z,100292.03
2022-12-12T02:23:39.501Z,100288.28
2022-12-12T02:26:25.825Z,100277.41
2022-12-12T02:29:11.415Z,100286.63
2022-12-12T02:31:44.011Z,100282.44
2022-12-12T02:34:17.218Z,100284.91
2022-12-12T02:36:49.749Z,100288.28
2022-12-12T02:39:21.062Z,100290.97
2022-12-12T02:41:55.797Z,100294.25
2022-12-12T02:44:29.203Z,100288.63
2022-12-12T02:47:02.499Z,100283.03
2022-12-12T02:49:36.011Z,100288.75
2022-12-12T02:52:09.013Z,100293.59
2022-12-12T02:54:37.459Z,100293.47
2022-12-12T02:57:14.381Z,100287.16
2022-12-12T02:59:43.659Z,100284.47
2022-12-12T03:02:30.427Z,100287.25
2022-12-12T03:05:29.519Z,100294.13
2022-12-12T03:08:05.308Z,100295.06
2022-12-12T03:10:38.704Z,100294.72
2022-12-12T03:13:12.970Z,100285.19
2022-12-12T03:15:47.697Z,100294.53
2022-12-12T03:18:22.820Z,100284.47
2022-12-12T03:20:56.420Z,100294.16
2022-12-12T03:23:25.986Z,100287.94
2022-12-12T03:25:59.335Z,100294.25
2022-12-12T03:28:31.440Z,100290.75
2022-12-12T03:31:03.020Z,100283.47
2022-12-12T03:33:34.974Z,100279.75
2022-12-12T03:36:08.765Z,100282.84
2022-12-12T03:38:38.730Z,100280.69
2022-12-12T03:41:09.972Z,100279.81
2022-12-12T03:43:41.253Z,100281.09
2022-12-12T03:46:14.262Z,100283.72
2022-12-12T03:48:45.206Z,100289.84
2022-12-12T03:51:17.322Z,100286.59
2022-12-12T03:53:48.190Z,100279.47
2022-12-12T03:56:19.978Z,100290.78
2022-12-12T03:59:08.397Z,100289.50
2022-12-12T04:01:40.483Z,100295.38
2022-12-12T04:04:10.735Z,100298.41
2022-12-12T04:06:43.738Z,100295.72
2022-12-12T04:09:31.449Z,100301.69
2022-12-12T04:12:21.834Z,100294.31
2022-12-12T04:15:01.618Z,100292.91
2022-12-12T04:17:33.821Z,100294.19
2022-12-12T04:20:23.851Z,100295.84
2022-12-12T04:23:18.828Z,100306.94
2022-12-12T04:26:15.502Z,100298.06
2022-12-12T04:28:46.722Z,100303.31
2022-12-12T04:31:16.500Z,100305.66
2022-12-12T04:33:47.704Z,100309.38
2022-12-12T04:36:18.577Z,100303.66
2022-12-12T04:38:49.158Z,100315.00
2022-12-12T04:41:18.266Z,100306.13
2022-12-12T04:43:49.037Z,100312.44
2022-12-12T04:46:19.872Z,100308.91
2022-12-12T04:48:52.986Z,100307.16
2022-12-12T04:51:25.685Z,100299.91
2022-12-12T04:54:00.807Z,100304.84
2022-12-12T04:56:30.797Z,100299.72
2022-12-12T04:58:59.580Z,100319.34
2022-12-12T05:01:33.512Z,100314.44
2022-12-12T05:04:02.871Z,100318.28
2022-12-12T05:06:34.354Z,100313.25
2022-12-12T05:09:04.447Z,100316.03
2022-12-12T05:11:34.209Z,100320.94
2022-12-12T05:14:02.535Z,100326.53
2022-12-12T05:16:32.879Z,100325.03
2022-12-12T05:19:01.696Z,100330.28
2022-12-12T05:21:30.140Z,100322.81
2022-12-12T05:23:58.447Z,100337.88
2022-12-12T05:26:28.926Z,100337.41
2022-12-12T05:29:01.119Z,100336.16
2022-12-12T05:31:33.822Z,100331.47
2022-12-12T05:34:02.181Z,100339.06
2022-12-12T05:36:30.539Z,100344.69
2022-12-12T05:38:59.032Z,100347.16
2022-12-12T05:41:28.704Z,100339.09
2022-12-12T05:43:57.126Z,100338.38
2022-12-12T05:46:25.623Z,100341.53
2022-12-12T05:48:53.882Z,100342.13
2022-12-12T05:51:22.462Z,100356.97
2022-12-12T05:53:50.738Z,100351.25
2022-12-12T05:56:19.642Z,100343.28
2022-12-12T05:58:49.268Z,100348.31
2022-12-12T06:01:17.574Z,100349.13
2022-12-12T06:03:45.921Z,100345.63
2022-12-12T06:06:14.163Z,100342.84
2022-12-12T06:08:43.260Z,100342.47
2022-12-12T06:11:11.758Z,100345.41
2022-12-12T06:13:40.280Z,100350.31
2022-12-12T06:16:11.317Z,100352.63
2022-12-12T06:18:39.897Z,100350.06
2022-12-12T06:21:09.691Z,100352.28
2022-12-12T06:23:38.720Z,100359.88
2022-12-12T06:26:07.892Z,100356.03
2022-12-12T06:28:36.403Z,100356.38
2022-12-12T06:31:11.101Z,100361.88
2022-12-12T06:33:42.197Z,100359.38
2022-12-12T06:36:14.029Z,100363.13
2022-12-12T06:38:42.723Z,100363.13
2022-12-12T06:41:12.622Z,100363.81
2022-12-12T06:43:41.785Z,100365.94
2022-12-12T06:46:13.808Z,100368.38
2022-12-12T06:48:44.278Z,100361.72
2022-12-12T06:51:15.288Z,100363.91
2022-12-12T06:53:43.615Z,100361.94
2022-12-12T06:56:14.681Z,100362.88
2022-12-12T06:58:43.677Z,100372.47
2022-12-12T07:01:12.570Z,100376.56
2022-12-12T07:03:41.175Z,100376.47
2022-12-12T07:06:10.868Z,100369.69
2022-12-12T07:08:40.136Z,100380.91
2022-12-12T07:11:10.022Z,100379.25
2022-12-12T07:13:38.440Z,100367.25
2022-12-12T07:16:07.595Z,100366.66
2022-12-12T07:18:36.488Z,100368.19
2022-12-12T07:21:05.452Z,100367.47
2022-12-12T07:23:35.397Z,100370.63
2022-12-12T07:26:04.502Z,100374.72
2022-12-12T07:28:35.398Z,100381.16
2022-12-12T07:31:06.375Z,100377.66
2022-12-12T07:33:43.034Z,100386.06
2022-12-12T07:36:12.829Z,100378.09
2022-12-12T07:38:43.139Z,100378.81
2022-12-12T07:41:12.433Z,100388.84
2022-12-12T07:43:44.222Z,100390.97
2022-12-12T07:46:15.175Z,100398.34
2022-12-12T07:48:43.681Z,100398.69
2022-12-12T07:51:12.273Z,100397.75
2022-12-12T07:53:41.890Z,100408.03
2022-12-12T07:56:11.398Z,100405.94
2022-12-12T07:58:40.265Z,100408.03
2022-12-12T08:01:14.648Z,100404.19
2022-12-12T08:03:44.011Z,100408.94
2022-12-12T08:06:13.443Z,100412.09
2022-12-12T08:08:43.599Z,100418.50
2022-12-12T08:11:12.827Z,100417.56
2022-12-12T08:13:41.759Z,100412.38
2022-12-12T08:16:13.908Z,100407.78
2022-12-12T08:18:42.444Z,100406.03
2022-12-12T08:21:11.787Z,100410.13
2022-12-12T08:23:40.269Z,100414.13
2022-12-12T08:26:11.144Z,100414.75
2022-12-12T08:28:41.293Z,100419.22
2022-12-12T08:31:10.465Z,100412.22
2022-12-12T08:33:39.084Z,100422.03
2022-12-12T08:36:14.673Z,100430.22
2022-12-12T08:38:43.299Z,100419.09
2022-12-12T08:41:13.499Z,100435.19
2022-12-12T08:43:42.776Z,100434.00
2022-12-12T08:46:17.909Z,100420.75
2022-12-12T08:48:47.138Z,100430.16
2022-12-12T08:51:15.550Z,100434.22
2022-12-12T08:53:44.701Z,100430.00
2022-12-12T08:56:14.797Z,100437.56
2022-12-12T08:58:43.510Z,100437.41
2022-12-12T09:01:13.546Z,100441.66
2022-12-12T09:03:42.084Z,100444.56
2022-12-12T09:06:12.592Z,100441.47
2022-12-12T09:08:42.369Z,100447.72
2022-12-12T09:11:11.260Z,100450.34
2022-12-12T09:13:40.996Z,100443.72
2022-12-12T09:16:09.937Z,100446.66
2022-12-12T09:18:42.083Z,100452.25
2022-12-12T09:21:28.475Z,100461.94
2022-12-12T09:23:56.851Z,100456.53
2022-12-12T09:26:26.581Z,100460.19
2022-12-12T09:28:56.318Z,100467.28
2022-12-12T09:31:26.853Z,100459.63
2022-12-12T09:33:55.253Z,100458.28
2022-12-12T09:36:23.590Z,100464.47
2022-12-12T09:38:51.946Z,100466.56
2022-12-12T09:41:21.533Z,100465.59
2022-12-12T09:43:54.320Z,100461.13
2022-12-12T09:46:27.848Z,100465.31
2022-12-12T09:48:58.126Z,100456.19
2022-12-12T09:51:26.768Z,100455.88
2022-12-12T09:53:55.629Z,100459.06
2022-12-12T09:56:27.170Z,100459.78
2022-12-12T09:59:00.324Z,100465.00
2022-12-12T10:01:32.746Z,100464.31
2022-12-12T10:04:06.527Z,100462.69
2022-12-12T10:06:38.429Z,100457.31
2022-12-12T10:09:11.950Z,100463.28
2022-12-12T10:11:55.652Z,100454.84
2022-12-12T10:14:28.979Z,100454.38
2022-12-12T10:16:59.516Z,100466.44
2022-12-12T10:19:30.048Z,100460.72
2022-12-12T10:22:03.205Z,100460.09
2022-12-12T10:24:34.657Z,100457.66
2022-12-12T10:27:09.732Z,100463.53
2022-12-12T10:29:41.704Z,100459.84
2022-12-12T10:32:17.656Z,100454.56
2022-12-12T10:34:55.762Z,100456.94
2022-12-12T10:37:35.117Z,100458.00
2022-12-12T10:40:11.292Z,100459.28
2022-12-12T10:42:42.867Z,100450.13
2022-12-12T10:45:30.966Z,100451.06
2022-12-12T10:48:02.493Z,100443.28
2022-12-12T10:50:38.355Z,100438.53
2022-12-12T10:53:12.009Z,100435.91
2022-12-12T10:55:46.818Z,100440.34
2022-12-12T10:58:17.231Z,100432.53
2022-12-12T11:00:48.105Z,100439.78
2022-12-12T11:03:28.694Z,100432.03
2022-12-12T11:05:57.802Z,100431.50
2022-12-12T11:08:30.238Z,100433.22
2022-12-12T11:11:04.545Z,100431.94
2022-12-12T11:13:39.361Z,100425.88
2022-12-12T11:16:13.247Z,100432.06
2022-12-12T11:18:44.721Z,100425.19
2022-12-12T11:21:14.626Z,100418.19
2022-12-12T11:23:49.598Z,100422.97
2022-12-12T11:26:19.760Z,100420.47
2022-12-12T11:28:54.821Z,100421.84
2022-12-12T11:31:25.403Z,100422.63
2022-12-12T11:33:57.090Z,100413.38
2022-12-12T11:36:30.075Z,100417.50
2022-12-12T11:38:59.549Z,100417.75
2022-12-12T11:41:28.053Z,100414.53
2022-12-12T11:44:01.735Z,100405.25
2022-12-12T11:46:31.201Z,100407.50
2022-12-12T11:49:02.906Z,100403.09
2022-12-12T11:51:33.094Z,100400.19
2022-12-12T11:54:02.119Z,100393.78
2022-12-12T11:56:39.622Z,100390.03
2022-12-12T11:59:28.904Z,100395.28
2022-12-12T12:02:00.352Z,100387.50
2022-12-12T12:04:49.576Z,100392.47
2022-12-12T12:07:36.243Z,100389.38
2022-12-12T12:10:09.315Z,100392.47
2022-12-12T12:12:42.523Z,100392.66
2022-12-12T12:15:25.726Z,100398.31
2022-12-12T12:18:02.526Z,100397.19
2022-12-12T12:20:39.789Z,100393.00
2022-12-12T12:23:15.831Z,100401.06
2022-12-12T12:25:50.633Z,100391.69
2022-12-12T12:28:35.680Z,100391.22
2022-12-12T12:31:07.844Z,100389.41
2022-12-12T12:33:45.044Z,100385.91
2022-12-12T12:36:21.452Z,100381.56
2022-12-12T12:38:56.296Z,100384.84
2022-12-12T12:41:35.167Z,100382.28
2022-12-12T12:44:17.189Z,100380.91
2022-12-12T12:46:49.577Z,100382.22
2022-12-12T12:49:22.128Z,100378.09
2022-12-12T12:51:54.827Z,100375.31
2022-12-12T12:54:25.940Z,100380.53
2022-12-12T12:56:58.515Z,100386.22
2022-12-12T12:59:31.119Z,100384.97
2022-12-12T13:02:02.409Z,100376.28
2022-12-12T13:04:32.802Z,100376.78
2022-12-12T13:07:05.390Z,100380.50
2022-12-12T13:09:39.367Z,100375.56
2022-12-12T13:12:13.158Z,100383.56
2022-12-12T13:14:45.510Z,100373.22
2022-12-12T13:17:17.430Z,100373.22
2022-12-12T13:19:47.986Z,100369.66
2022-12-12T13:22:20.481Z,100376.84
2022-12-12T13:24:58.084Z,100369.50
2022-12-12T13:27:30.955Z,100372.28
2022-12-12T13:30:02.221Z,100372.88
2022-12-12T13:33:03.784Z,100376.13
2022-12-12T13:35:34.247Z,100373.69
2022-12-12T13:38:04.376Z,100365.25
2022-12-12T13:40:34.865Z,100363.69
2022-12-12T13:43:09.409Z,100373.78
2022-12-12T13:45:41.293Z,100372.28
2022-12-12T13:48:29.097Z,100376.03
2022-12-12T13:51:16.530Z,100379.66
2022-12-12T13:53:46.782Z,100367.25
2022-12-12T13:56:35.112Z,100381.47
2022-12-12T13:59:03.961Z,100379.44
2022-12-12T14:01:37.027Z,100377.75
2022-12-12T14:04:05.883Z,100371.50
2022-12-12T14:06:34.583Z,100373.25
2022-12-12T14:09:04.450Z,100373.97
2022-12-12T14:11:34.408Z,100380.06
2022-12-12T14:14:07.236Z,100380.78
2022-12-12T14:16:36.475Z,100388.47
2022-12-12T14:19:09.514Z,100384.59
2022-12-12T14:21:39.734Z,100380.72
2022-12-12T14:24:26.543Z,100391.44
2022-12-12T14:26:56.410Z,100388.28
2022-12-12T14:29:26.348Z,100388.38
2022-12-12T14:31:58.363Z,100383.56
2022-12-12T14:34:30.637Z,100388.84
2022-12-12T14:37:16.673Z,100388.59
2022-12-12T14:39:54.898Z,100383.13
2022-12-12T14:43:15.663Z,100389.47
2022-12-12T14:45:24.583Z,100395.00
2022-12-12T14:48:08.225Z,100400.75
2022-12-12T14:50:37.422Z,100399.59
2022-12-12T14:53:14.991Z,100398.44
2022-12-12T14:55:50.926Z,100396.22
2022-12-12T14:58:22.654Z,100390.25
2022-12-12T15:00:53.577Z,100396.75
2022-12-12T15:03:27.325Z,100395.03
2022-12-12T15:06:14.432Z,100403.31
2022-12-12T15:08:43.263Z,100395.59
2022-12-12T15:11:14.167Z,100406.16
2022-12-12T15:13:51.445Z,100404.88
2022-12-12T15:16:21.111Z,100405.38
2022-12-12T15:18:49.757Z,100406.63
2022-12-12T15:21:18.408Z,100400.09
2022-12-12T15:23:46.743Z,100408.97
2022-12-12T15:26:17.821Z,100401.13
2022-12-12T15:28:46.810Z,100399.00
2022-12-12T15:31:19.161Z,100401.22
2022-12-12T15:33:47.983Z,100413.78
2022-12-12T15:36:19.051Z,100421.56
2022-12-12T15:39:02.479Z,100423.19
2022-12-12T15:41:33.771Z,100427.00
2022-12-12T15:44:04.232Z,100426.53
2022-12-12T15:46:35.193Z,100435.19
2022-12-12T15:49:03.598Z,100437.09
2022-12-12T15:51:33.044Z,100439.47
2022-12-12T15:54:06.747Z,100438.63
2022-12-12T15:56:35.189Z,100434.28
2022-12-12T15:59:15.789Z,100439.38
2022-12-12T16:01:45.536Z,100436.44
2022-12-12T16:04:24.013Z,100440.69
2022-12-12T16:06:52.776Z,100429.47
2022-12-12T16:09:22.476Z,100435.88
2022-12-12T16:11:52.088Z,100424.81
2022-12-12T16:14:25.088Z,100435.41
2022-12-12T16:16:57.004Z,100436.13
2022-12-12T16:19:36.728Z,100439.41
2022-12-12T16:22:06.411Z,100449.19
2022-12-12T16:24:45.074Z,100439.72
2022-12-12T16:27:13.718Z,100453.41
2022-12-12T16:29:45.372Z,100442.69
2022-12-12T16:32:16.539Z,100443.78
2022-12-12T16:34:45.178Z,100444.88
2022-12-12T16:37:15.154Z,100439.94
2022-12-12T16:39:43.924Z,100446.00
2022-12-12T16:42:13.814Z,100440.63
2022-12-12T16:44:42.277Z,100440.53
2022-12-12T16:47:15.437Z,100444.34
2022-12-12T16:49:44.379Z,100446.69
2022-12-12T16:52:13.603Z,100446.09
2022-12-12T16:54:43.026Z,100443.91
2022-12-12T16:57:14.266Z,100451.22
2022-12-12T16:59:43.097Z,100453.50
2022-12-12T17:02:17.845Z,100458.25
2022-12-12T17:04:48.213Z,100452.16
2022-12-12T17:07:16.646Z,100457.88
2022-12-12T17:09:45.122Z,100455.66
2022-12-12T17:12:15.264Z,100455.34
2022-12-12T17:14:44.007Z,100455.75
2022-12-12T17:17:12.581Z,100456.69
2022-12-12T17:19:41.015Z,100453.03
2022-12-12T17:22:10.770Z,100448.31
2022-12-12T17:24:39.232Z,100458.81
2022-12-12T17:27:07.674Z,100455.16
2022-12-12T17:29:36.163Z,100462.38
2022-12-12T17:32:04.812Z,100455.19
2022-12-12T17:34:33.173Z,100452.47
2022-12-12T17:37:01.613Z,100461.38
2022-12-12T17:39:31.260Z,100449.00
2022-12-12T17:41:59.759Z,100459.38
2022-12-12T17:44:28.246Z,100460.53
2022-12-12T17:46:56.628Z,100457.47
2022-12-12T17:49:25.113Z,100455.03
2022-12-12T17:51:53.722Z,100463.69
2022-12-12T17:54:22.414Z,100462.41
2022-12-12T17:56:52.080Z,100456.63
2022-12-12T17:59:20.750Z,100459.91
2022-12-12T18:01:53.842Z,100447.16
2022-12-12T18:04:27.636Z,100459.13
2022-12-12T18:06:56.856Z,100453.78
2022-12-12T18:09:25.955Z,100465.31
2022-12-12T18:11:55.629Z,100468.56
2022-12-12T18:14:23.928Z,100464.16
2022-12-12T18:16:53.396Z,100463.16
2022-12-12T18:19:22.344Z,100451.84
2022-12-12T18:22:00.863Z,100447.34
2022-12-12T18:24:30.435Z,100448.31
2022-12-12T18:27:01.381Z,100448.16
2022-12-12T18:29:30.236Z,100444.03
2022-12-12T18:31:58.886Z,100439.97
2022-12-12T18:34:27.355Z,100438.16
2022-12-12T18:36:55.816Z,100432.09
2022-12-12T18:39:24.181Z,100435.00
2022-12-12T18:41:53.424Z,100442.44
2022-12-12T18:44:23.442Z,100446.41
2022-12-12T18:46:52.172Z,100443.94
2022-12-12T18:49:21.027Z,100447.06
2022-12-12T18:51:50.079Z,100452.63
2022-12-12T18:54:18.669Z,100447.88
2022-12-12T18:56:47.761Z,100443.19
2022-12-12T18:59:16.761Z,100440.31
2022-12-12T19:01:48.055Z,100446.47
2022-12-12T19:04:22.949Z,100443.16
2022-12-12T19:06:54.009Z,100435.53
2022-12-12T19:09:22.857Z,100441.97
2022-12-12T19:12:01.652Z,100434.41
2022-12-12T19:15:15.326Z,100436.50
2022-12-12T19:17:26.184Z,100438.56
2022-12-12T19:19:56.675Z,100442.88
2022-12-12T19:25:19.138Z,100434.44
2022-12-12T19:27:47.993Z,100438.13
2022-12-12T19:30:19.057Z,100439.38
2022-12-12T19:32:50.122Z,100440.56
2022-12-12T19:35:26.302Z,100442.25
2022-12-12T19:37:54.604Z,100440.19
2022-12-12T19:40:22.952Z,100441.22
2022-12-12T19:42:51.793Z,100441.84
2022-12-12T19:45:20.453Z,100437.31
2022-12-12T19:47:51.741Z,100443.09
2022-12-12T19:50:20.385Z,100435.69
2022-12-12T19:52:50.269Z,100445.97
2022-12-12T19:55:18.885Z,100443.09
2022-12-12T19:57:47.463Z,100440.19
2022-12-12T20:00:20.033Z,100440.22
2022-12-12T20:02:54.540Z,100436.50
2022-12-12T20:05:24.162Z,100427.06
2022-12-12T20:07:56.328Z,100427.06
2022-12-12T20:10:26.342Z,100432.38
2022-12-12T20:12:58.746Z,100433.44
2022-12-12T20:15:27.610Z,100432.25
2022-12-12T20:18:00.691Z,100435.34
2022-12-12T20:20:29.703Z,100439.91
2022-12-12T20:22:58.544Z,100443.63
2022-12-12T20:25:27.078Z,100431.03
2022-12-12T20:27:57.758Z,100428.38
2022-12-12T20:30:29.317Z,100434.75
2022-12-12T20:32:59.853Z,100425.50
2022-12-12T20:35:28.293Z,100441.75
2022-12-12T20:37:59.808Z,100442.16
2022-12-12T20:40:31.495Z,100451.84
2022-12-12T20:43:03.499Z,100447.75
2022-12-12T20:45:32.693Z,100448.97
2022-12-12T20:48:07.370Z,100458.84
2022-12-12T20:50:36.967Z,100446.31
2022-12-12T20:53:05.529Z,100449.19
2022-12-12T20:55:35.635Z,100442.81
2022-12-12T20:58:04.420Z,100444.47
2022-12-12T21:00:35.579Z,100453.03
2022-12-12T21:03:05.861Z,100448.94
2022-12-12T21:05:34.243Z,100456.75
2022-12-12T21:08:02.968Z,100453.47
2022-12-12T21:10:32.325Z,100461.91
2022-12-12T21:13:00.756Z,100467.06
2022-12-12T21:15:29.565Z,100472.22
2022-12-12T21:17:58.036Z,100465.41
2022-12-12T21:20:27.767Z,100470.75
2022-12-12T21:22:57.305Z,100474.06
2022-12-12T21:25:26.308Z,100465.00
2022-12-12T21:27:54.892Z,100470.13
2022-12-12T21:30:23.275Z,100457.19
2022-12-12T21:32:52.203Z,100463.38
2022-12-12T21:35:20.759Z,100469.53
2022-12-12T21:37:50.690Z,100472.81
2022-12-12T21:40:21.279Z,100472.38
2022-12-12T21:42:49.798Z,100465.00
2022-12-12T21:45:18.603Z,100468.28
2022-12-12T21:47:47.212Z,100462.75
2022-12-12T21:50:16.488Z,100473.03
2022-12-12T21:53:05.773Z,100474.25
2022-12-12T21:55:41.056Z,100458.41
2022-12-12T21:58:10.157Z,100457.59
2022-12-12T22:00:39.948Z,100453.09
2022-12-12T22:03:08.584Z,100448.16
2022-12-12T22:05:37.015Z,100451.22
2022-12-12T22:08:05.414Z,100449.78
2022-12-12T22:10:37.392Z,100455.75
2022-12-12T22:13:07.118Z,100452.69
2022-12-12T22:15:35.433Z,100453.09
2022-12-12T22:18:03.670Z,100454.94
2022-12-12T22:20:32.045Z,100446.09
2022-12-12T22:23:00.281Z,100452.47
2022-12-12T22:25:28.726Z,100454.50
2022-12-12T22:27:57.025Z,100446.09
2022-12-12T22:30:26.601Z,100452.03
2022-12-12T22:32:55.039Z,100448.13
2022-12-12T22:35:25.627Z,100461.66
2022-12-12T22:37:55.165Z,100454.06
2022-12-12T22:40:23.403Z,100453.44
2022-12-12T22:42:51.658Z,100461.44
2022-12-12T22:45:19.869Z,100452.66
2022-12-12T22:47:51.183Z,100457.97
2022-12-12T22:50:19.671Z,100460.44
2022-12-12T22:52:47.899Z,100456.13
2022-12-12T22:55:16.467Z,100444.41
2022-12-12T22:57:46.542Z,100453.47
2022-12-12T23:00:15.314Z,100453.84
2022-12-12T23:02:43.717Z,100446.47
2022-12-12T23:05:13.971Z,100450.16
2022-12-12T23:07:42.652Z,100446.06
2022-12-12T23:10:10.950Z,100451.00
2022-12-12T23:12:40.219Z,100455.50
2022-12-12T23:15:09.393Z,100458.34
2022-12-12T23:17:37.824Z,100462.25
2022-12-12T23:20:07.621Z,100463.09
2022-12-12T23:22:37.242Z,100455.88
2022-12-12T23:25:05.930Z,100448.06
2022-12-12T23:27:34.262Z,100442.94
2022-12-12T23:30:02.744Z,100444.41
2022-12-12T23:32:31.201Z,100437.44
2022-12-12T23:34:59.924Z,100439.06
2022-12-12T23:37:31.252Z,100441.53
2022-12-12T23:40:02.319Z,100433.91
2022-12-12T23:42:30.599Z,100434.53
2022-12-12T23:45:01.793Z,100439.44
2022-12-12T23:47:30.331Z,100434.72
2022-12-12T23:49:58.730Z,100431.66
2022-12-12T23:52:26.994Z,100424.06
2022-12-12T23:54:55.201Z,100418.09
2022-12-12T23:57:24.728Z,100417.69
2022-12-12T23:59:53.112Z,100416.06
